Unlu-5 — TCON5 — position and weather

sailwx.info

Track history (hours):
 
Tides and Currents Weather Stations Pressure Air Temp Water Temp Dewpoint Dewpoint Depression Visibility Wind Speed Wind Dir Waves Ship Positions

Unlu-5

Last reported at 2016-Sep-22 04:33 UTC. Time now 2016-Sep-27 03:40 UTC.
Position N 36°41' E 014°34'.

Length 99 m; draft 4 m.

Type: Ship. MMSI: 271000854.

Date/timePositionNaut miles runAvg speedWind from/ knotsBaromVisibWave heightAir tempDewpointWater temp
2016-Sep-22 04:33N 36°41' E 014°34'  
2016-Sep-16 17:33N 36°40' E 014°29'15 7.7
2016-Sep-16 15:33N 36°45' E 014°10'24 8.1
2016-Sep-16 12:33N 36°53' E 013°42'24 8.0
2016-Sep-16 09:33N 37°00' E 013°13'16 7.8
2016-Sep-16 07:33N 37°02' E 012°54'31 7.7
2016-Sep-16 03:31N 37°05' E 012°15'9 7.4
2016-Sep-16 02:21N 37°07' E 012°05'15 7.8
2016-Sep-16 00:24N 37°11' E 011°46'15 7.9
2016-Sep-15 22:33N 37°16' E 011°29'8 8.4
2016-Sep-15 21:33N 37°19' E 011°19'10 9.0
2016-Sep-15 20:30N 37°23' E 011°08'256 5.0
2016-Sep-13 17:17N 36°50' E 005°49'0 0.0
2016-Sep-13 09:14N 36°50' E 005°49'0 0.0
2016-Sep-12 21:11N 36°50' E 005°49'0 0.0
2016-Sep-12 19:32N 36°50' E 005°49'0 0.0
2016-Sep-12 17:32N 36°50' E 005°49'  
Track history (hours):
 
Tides and Currents Weather Stations Pressure Air Temp Water Temp Dewpoint Dewpoint Depression Visibility Wind Speed Wind Dir Waves Ship Positions

Unlu-5

Last reported at 2016-Sep-22 04:33 UTC. Time now 2016-Sep-27 03:40 UTC.
Position N 36°41' E 014°34'.

Length 99 m; draft 4 m.

Type: Ship. MMSI: 271000854.

Date/timePositionNaut miles runAvg speedWind from/ knotsBaromVisibWave heightAir tempDewpointWater temp
2016-Sep-22 04:33N 36°41' E 014°34'  
2016-Sep-16 17:33N 36°40' E 014°29'15 7.7
2016-Sep-16 15:33N 36°45' E 014°10'24 8.1
2016-Sep-16 12:33N 36°53' E 013°42'24 8.0
2016-Sep-16 09:33N 37°00' E 013°13'16 7.8
2016-Sep-16 07:33N 37°02' E 012°54'31 7.7
2016-Sep-16 03:31N 37°05' E 012°15'9 7.4
2016-Sep-16 02:21N 37°07' E 012°05'15 7.8
2016-Sep-16 00:24N 37°11' E 011°46'15 7.9
2016-Sep-15 22:33N 37°16' E 011°29'8 8.4
2016-Sep-15 21:33N 37°19' E 011°19'10 9.0
2016-Sep-15 20:30N 37°23' E 011°08'256 5.0
2016-Sep-13 17:17N 36°50' E 005°49'0 0.0
2016-Sep-13 09:14N 36°50' E 005°49'0 0.0
2016-Sep-12 21:11N 36°50' E 005°49'0 0.0
2016-Sep-12 19:32N 36°50' E 005°49'0 0.0
2016-Sep-12 17:32N 36°50' E 005°49'  

Dump ship's entire track history